createdAt,value
2022-08-17T00:01:40.002Z,5.88
2022-08-17T00:04:19.537Z,5.22
2022-08-17T00:06:49.029Z,4.97
2022-08-17T00:09:18.780Z,5.10
2022-08-17T00:12:34.743Z,5.20
2022-08-17T00:14:36.584Z,4.82
2022-08-17T00:17:07.117Z,5.15
2022-08-17T00:19:34.268Z,4.90
2022-08-17T00:22:33.616Z,4.95
2022-08-17T00:24:50.418Z,5.10
2022-08-17T00:27:17.975Z,5.70
2022-08-17T00:29:46.019Z,4.93
2022-08-17T00:33:14.905Z,5.18
2022-08-17T00:35:08.074Z,4.97
2022-08-17T00:37:35.091Z,5.18
2022-08-17T00:40:02.187Z,4.88
2022-08-17T00:42:31.281Z,5.40
2022-08-17T00:44:59.069Z,5.20
2022-08-17T00:47:26.663Z,5.38
2022-08-17T00:49:54.191Z,5.90
2022-08-17T00:52:25.486Z,5.47
2022-08-17T00:54:55.448Z,5.53
2022-08-17T00:57:30.019Z,5.22
2022-08-17T01:00:12.405Z,5.60
2022-08-17T01:02:43.340Z,5.70
2022-08-17T01:05:31.544Z,6.38
2022-08-17T01:08:00.832Z,6.23
2022-08-17T01:10:58.555Z,5.30
2022-08-17T01:13:24.877Z,6.13
2022-08-17T01:16:15.990Z,6.07
2022-08-17T01:18:48.197Z,5.25
2022-08-17T01:21:40.970Z,5.60
2022-08-17T01:24:09.657Z,5.00
2022-08-17T01:26:42.096Z,5.40
2022-08-17T01:29:09.968Z,5.47
2022-08-17T01:31:42.625Z,6.25
2022-08-17T01:34:11.394Z,5.95
2022-08-17T01:36:42.446Z,5.82
2022-08-17T01:39:14.893Z,6.38
2022-08-17T01:41:42.295Z,6.10
2022-08-17T01:44:10.665Z,5.85
2022-08-17T01:46:38.634Z,5.95
2022-08-17T01:49:11.149Z,6.80
2022-08-17T01:51:39.081Z,6.25
2022-08-17T01:54:12.723Z,5.95
2022-08-17T01:56:44.218Z,6.10
2022-08-17T01:59:15.352Z,6.25
2022-08-17T02:01:43.683Z,6.00
2022-08-17T02:04:11.372Z,5.88
2022-08-17T02:06:45.207Z,6.30
2022-08-17T02:09:25.397Z,5.82
2022-08-17T02:11:54.804Z,5.93
2022-08-17T02:14:24.560Z,6.50
2022-08-17T02:16:52.431Z,6.05
2022-08-17T02:19:19.610Z,6.72
2022-08-17T02:21:49.291Z,5.65
2022-08-17T02:25:00.888Z,5.35
2022-08-17T02:27:10.540Z,5.40
2022-08-17T02:29:38.416Z,6.35
2022-08-17T02:32:05.788Z,7.07
2022-08-17T02:34:33.360Z,6.43
2022-08-17T02:37:00.406Z,5.57
2022-08-17T02:39:27.393Z,6.30
2022-08-17T02:42:02.269Z,5.40
2022-08-17T02:44:38.891Z,5.80
2022-08-17T02:47:07.833Z,5.90
2022-08-17T02:49:34.865Z,6.25
2022-08-17T02:52:04.627Z,6.43
2022-08-17T02:54:39.864Z,5.95
2022-08-17T02:57:08.013Z,6.07
2022-08-17T02:59:34.944Z,5.88
2022-08-17T03:02:04.190Z,6.53
2022-08-17T03:04:31.799Z,6.00
2022-08-17T03:07:02.983Z,6.18
2022-08-17T03:09:30.367Z,6.40
2022-08-17T03:12:12.979Z,5.90
2022-08-17T03:14:41.976Z,5.97
2022-08-17T03:17:10.152Z,6.57
2022-08-17T03:19:37.703Z,6.00
2022-08-17T03:22:35.679Z,6.20
2022-08-17T03:24:58.078Z,5.90
2022-08-17T03:27:24.997Z,6.40
2022-08-17T03:29:51.884Z,6.13
2022-08-17T03:32:20.814Z,6.40
2022-08-17T03:34:48.084Z,6.50
2022-08-17T03:37:15.120Z,6.72
2022-08-17T03:39:43.051Z,6.57
2022-08-17T03:42:32.343Z,6.07
2022-08-17T03:45:01.616Z,6.40
2022-08-17T03:47:47.006Z,6.27
2022-08-17T03:50:33.668Z,6.72
2022-08-17T03:53:21.325Z,6.35
2022-08-17T03:56:06.934Z,6.05
2022-08-17T03:58:34.048Z,6.50
2022-08-17T04:01:01.437Z,5.75
2022-08-17T04:03:28.915Z,6.00
2022-08-17T04:05:56.014Z,6.90
2022-08-17T04:08:23.088Z,5.75
2022-08-17T04:10:50.298Z,7.20
2022-08-17T04:13:24.868Z,6.20
2022-08-17T04:15:53.460Z,6.70
2022-08-17T04:18:20.483Z,6.30
2022-08-17T04:20:47.458Z,6.32
2022-08-17T04:23:19.568Z,6.25
2022-08-17T04:25:50.000Z,6.28
2022-08-17T04:28:18.902Z,6.25
2022-08-17T04:30:47.428Z,6.15
2022-08-17T04:33:24.126Z,6.13
2022-08-17T04:36:02.420Z,6.25
2022-08-17T04:38:32.037Z,6.35
2022-08-17T04:41:18.543Z,6.00
2022-08-17T04:43:47.185Z,6.20
2022-08-17T04:46:19.429Z,5.77
2022-08-17T04:48:52.765Z,5.90
2022-08-17T04:51:38.638Z,5.50
2022-08-17T04:54:18.141Z,6.85
2022-08-17T04:56:45.684Z,5.72
2022-08-17T04:59:20.267Z,5.80
2022-08-17T05:01:51.635Z,5.68
2022-08-17T05:04:34.811Z,5.78
2022-08-17T05:07:04.796Z,5.65
2022-08-17T05:12:02.471Z,5.32
2022-08-17T05:14:33.377Z,5.85
2022-08-17T05:17:01.490Z,5.10
2022-08-17T05:19:31.565Z,5.00
2022-08-17T05:21:59.748Z,5.20
2022-08-17T05:24:38.599Z,4.95
2022-08-17T05:27:10.739Z,4.97
2022-08-17T05:29:44.744Z,4.45
2022-08-17T05:32:39.173Z,4.90
2022-08-17T05:35:00.835Z,4.90
2022-08-17T05:37:28.178Z,5.97
2022-08-17T05:39:55.304Z,6.78
2022-08-17T05:42:22.708Z,5.40
2022-08-17T05:44:49.681Z,4.93
2022-08-17T05:47:18.354Z,4.70
2022-08-17T05:49:49.199Z,5.35
2022-08-17T05:52:37.519Z,4.55
2022-08-17T05:55:04.558Z,4.90
2022-08-17T05:57:53.341Z,5.50
2022-08-17T06:00:30.390Z,4.50
2022-08-17T06:03:21.878Z,4.93
2022-08-17T06:06:06.906Z,4.60
2022-08-17T06:09:22.938Z,4.90
2022-08-17T06:12:19.928Z,4.53
2022-08-17T06:15:07.456Z,4.82
2022-08-17T06:17:35.493Z,6.13
2022-08-17T06:20:10.380Z,4.55
2022-08-17T06:22:47.840Z,4.70
2022-08-17T06:25:23.611Z,5.15
2022-08-17T06:28:14.009Z,4.50
2022-08-17T06:30:59.759Z,5.03
2022-08-17T06:33:35.497Z,4.97
2022-08-17T06:36:15.927Z,4.43
2022-08-17T06:38:58.192Z,3.97
2022-08-17T06:41:43.022Z,4.00
2022-08-17T06:44:50.194Z,4.72
2022-08-17T06:47:28.321Z,3.83
2022-08-17T06:50:22.405Z,4.20
2022-08-17T06:53:12.797Z,4.38
2022-08-17T06:55:49.368Z,3.95
2022-08-17T06:58:22.330Z,4.30
2022-08-17T07:00:58.538Z,3.80
2022-08-17T07:03:38.793Z,3.35
2022-08-17T07:06:13.366Z,3.38
2022-08-17T07:08:58.046Z,3.60
2022-08-17T07:11:36.781Z,3.53
2022-08-17T07:14:24.599Z,4.32
2022-08-17T07:16:55.447Z,3.70
2022-08-17T07:19:26.653Z,3.97
2022-08-17T07:22:14.493Z,3.55
2022-08-17T07:25:02.595Z,3.47
2022-08-17T07:27:35.514Z,3.35
2022-08-17T07:30:12.504Z,4.63
2022-08-17T07:32:42.417Z,3.50
2022-08-17T07:35:41.016Z,3.67
2022-08-17T07:38:25.240Z,3.00
2022-08-17T07:40:57.928Z,2.70
2022-08-17T07:43:31.850Z,3.10
2022-08-17T07:46:23.753Z,3.60
2022-08-17T07:48:54.511Z,3.03
2022-08-17T07:51:26.617Z,3.75
2022-08-17T07:54:14.141Z,3.40
2022-08-17T07:56:56.996Z,3.25
2022-08-17T07:59:36.889Z,3.05
2022-08-17T08:02:13.452Z,3.00
2022-08-17T08:05:02.042Z,3.72
2022-08-17T08:07:35.679Z,3.35
2022-08-17T08:10:13.066Z,3.25
2022-08-17T08:12:47.447Z,3.10
2022-08-17T08:15:15.395Z,3.05
2022-08-17T08:17:54.274Z,3.42
2022-08-17T08:20:53.903Z,3.42
2022-08-17T08:23:32.893Z,3.08
2022-08-17T08:26:17.943Z,2.85
2022-08-17T08:29:29.761Z,3.30
2022-08-17T08:32:19.514Z,3.55
2022-08-17T08:35:13.108Z,2.80
2022-08-17T08:38:10.901Z,3.05
2022-08-17T08:40:52.483Z,3.08
2022-08-17T08:43:50.843Z,3.50
2022-08-17T08:46:52.661Z,3.35
2022-08-17T08:50:03.368Z,2.92
2022-08-17T08:52:49.614Z,2.90
2022-08-17T08:55:35.691Z,3.42
2022-08-17T08:58:32.068Z,2.92
2022-08-17T09:01:09.211Z,2.97
2022-08-17T09:04:21.374Z,2.78
2022-08-17T09:07:10.590Z,2.92
2022-08-17T09:09:51.245Z,3.17
2022-08-17T09:12:41.048Z,2.70
2022-08-17T09:15:40.229Z,3.25
2022-08-17T09:21:08.052Z,3.17
2022-08-17T09:23:45.446Z,2.85
2022-08-17T09:26:25.573Z,3.53
2022-08-17T09:29:01.675Z,2.80
2022-08-17T09:31:46.467Z,2.75
2022-08-17T09:34:22.334Z,3.28
2022-08-17T09:37:20.415Z,2.92
2022-08-17T09:39:58.532Z,2.67
2022-08-17T09:42:47.006Z,3.22
2022-08-17T09:45:57.351Z,2.70
2022-08-17T09:48:57.698Z,2.50
2022-08-17T09:51:40.258Z,3.88
2022-08-17T09:54:42.520Z,2.72
2022-08-17T09:57:30.232Z,3.58
2022-08-17T10:00:19.024Z,2.90
2022-08-17T10:03:09.648Z,2.70
2022-08-17T10:05:46.793Z,2.72
2022-08-17T10:08:52.639Z,2.60
2022-08-17T10:11:59.807Z,2.17
2022-08-17T10:14:53.633Z,3.40
2022-08-17T10:17:38.061Z,3.03
2022-08-17T10:20:17.401Z,2.75
2022-08-17T10:23:09.004Z,2.45
2022-08-17T10:26:02.987Z,2.75
2022-08-17T10:28:37.006Z,2.72
2022-08-17T10:34:21.013Z,2.65
2022-08-17T10:37:13.055Z,3.00
2022-08-17T10:40:24.839Z,2.70
2022-08-17T10:43:15.457Z,3.00
2022-08-17T10:46:14.565Z,2.80
2022-08-17T10:49:16.927Z,3.47
2022-08-17T10:51:54.427Z,3.67
2022-08-17T10:54:36.425Z,2.95
2022-08-17T10:57:29.282Z,3.20
2022-08-17T11:00:03.559Z,5.03
2022-08-17T11:02:41.429Z,3.70
2022-08-17T11:05:38.961Z,4.07
2022-08-17T11:08:47.057Z,3.30
2022-08-17T11:11:35.943Z,3.95
2022-08-17T11:14:41.369Z,3.80
2022-08-17T11:17:17.343Z,3.88
2022-08-17T11:19:53.502Z,3.50
2022-08-17T11:23:26.863Z,3.60
2022-08-17T11:25:56.532Z,3.80
2022-08-17T11:28:35.336Z,3.45
2022-08-17T11:31:38.323Z,3.30
2022-08-17T11:34:27.021Z,3.40
2022-08-17T11:37:08.090Z,3.42
2022-08-17T11:39:54.427Z,3.63
2022-08-17T11:42:30.816Z,3.78
2022-08-17T11:45:32.285Z,3.17
2022-08-17T11:48:40.358Z,3.40
2022-08-17T11:51:46.719Z,3.47
2022-08-17T11:54:34.917Z,3.67
2022-08-17T11:57:25.905Z,3.20
2022-08-17T12:00:10.572Z,2.97
2022-08-17T12:02:47.084Z,3.17
2022-08-17T12:05:22.753Z,3.33
2022-08-17T12:08:18.512Z,3.20
2022-08-17T12:11:06.472Z,3.22
2022-08-17T12:13:50.711Z,3.83
2022-08-17T12:16:20.198Z,3.30
2022-08-17T12:18:59.022Z,3.10
2022-08-17T12:21:43.063Z,3.17
2022-08-17T12:24:50.577Z,3.20
2022-08-17T12:28:04.363Z,3.35
2022-08-17T12:30:21.632Z,3.42
2022-08-17T12:32:49.102Z,2.80
2022-08-17T12:35:48.230Z,3.65
2022-08-17T12:38:32.461Z,3.17
2022-08-17T12:41:22.483Z,3.10
2022-08-17T12:46:23.629Z,3.22
2022-08-17T12:48:58.971Z,3.00
2022-08-17T12:51:29.185Z,3.60
2022-08-17T12:53:56.759Z,2.72
2022-08-17T12:56:23.851Z,3.42
2022-08-17T12:58:56.625Z,3.22
2022-08-17T13:01:25.148Z,3.40
2022-08-17T13:03:55.207Z,3.33
2022-08-17T13:06:45.980Z,3.28
2022-08-17T13:09:35.644Z,3.40
2022-08-17T13:12:07.930Z,3.47
2022-08-17T13:14:35.469Z,2.83
2022-08-17T13:17:08.595Z,3.13
2022-08-17T13:19:49.656Z,3.35
2022-08-17T13:22:18.430Z,3.10
2022-08-17T13:24:57.791Z,3.55
2022-08-17T13:27:27.854Z,3.55
2022-08-17T13:29:59.623Z,3.33
2022-08-17T13:32:39.887Z,3.25
2022-08-17T13:35:40.047Z,3.25
2022-08-17T13:38:10.430Z,3.00
2022-08-17T13:40:55.322Z,3.35
2022-08-17T13:43:48.533Z,3.08
2022-08-17T13:46:24.961Z,3.28
2022-08-17T13:49:03.936Z,3.00
2022-08-17T13:51:41.697Z,3.58
2022-08-17T13:54:21.124Z,3.05
2022-08-17T13:56:57.663Z,3.25
2022-08-17T13:59:54.395Z,2.92
2022-08-17T14:02:27.916Z,3.00
2022-08-17T14:04:56.929Z,3.20
2022-08-17T14:07:31.504Z,3.03
2022-08-17T14:10:09.408Z,3.58
2022-08-17T14:12:39.697Z,3.88
2022-08-17T14:15:08.229Z,2.67
2022-08-17T14:17:38.884Z,3.22
2022-08-17T14:20:09.611Z,3.45
2022-08-17T14:22:39.432Z,3.45
2022-08-17T14:25:10.302Z,2.90
2022-08-17T14:27:51.852Z,3.95
2022-08-17T14:30:25.638Z,3.17
2022-08-17T14:32:54.895Z,3.22
2022-08-17T14:35:23.262Z,3.20
2022-08-17T14:37:51.399Z,3.00
2022-08-17T14:40:20.915Z,3.47
2022-08-17T14:42:48.381Z,3.03
2022-08-17T14:45:32.039Z,3.13
2022-08-17T14:48:01.239Z,3.08
2022-08-17T14:50:28.287Z,3.47
2022-08-17T14:52:59.295Z,3.28
2022-08-17T14:55:29.865Z,3.00
2022-08-17T14:57:57.045Z,3.05
2022-08-17T15:00:24.073Z,2.88
2022-08-17T15:02:58.584Z,3.97
2022-08-17T15:05:30.672Z,3.50
2022-08-17T15:07:58.896Z,4.53
2022-08-17T15:10:26.128Z,11.48
2022-08-17T15:12:54.530Z,4.47
2022-08-17T15:15:21.468Z,3.08
2022-08-17T15:17:48.470Z,3.10
2022-08-17T15:20:22.916Z,2.90
2022-08-17T15:22:51.015Z,3.58
2022-08-17T15:25:19.427Z,2.88
2022-08-17T15:27:47.527Z,3.83
2022-08-17T15:30:15.392Z,3.25
2022-08-17T15:32:51.434Z,3.63
2022-08-17T15:35:30.581Z,3.53
2022-08-17T15:38:03.519Z,3.25
2022-08-17T15:40:37.710Z,3.53
2022-08-17T15:43:27.257Z,3.08
2022-08-17T15:46:01.475Z,3.15
2022-08-17T15:48:42.996Z,3.20
2022-08-17T15:51:17.575Z,3.15
2022-08-17T15:53:50.611Z,3.40
2022-08-17T15:56:18.710Z,3.20
2022-08-17T15:58:47.777Z,3.58
2022-08-17T16:01:18.722Z,2.92
2022-08-17T16:04:04.377Z,3.88
2022-08-17T16:06:35.581Z,3.35
2022-08-17T16:09:02.675Z,3.30
2022-08-17T16:11:30.688Z,3.70
2022-08-17T16:13:57.889Z,3.45
2022-08-17T16:16:24.946Z,3.05
2022-08-17T16:18:58.309Z,3.40
2022-08-17T16:21:27.543Z,3.33
2022-08-17T16:24:13.717Z,4.25
2022-08-17T16:26:42.566Z,4.00
2022-08-17T16:29:09.793Z,6.15
2022-08-17T16:31:37.863Z,6.13
2022-08-17T16:34:17.114Z,4.72
2022-08-17T16:36:55.014Z,4.65
2022-08-17T16:39:26.932Z,4.35
2022-08-17T16:41:54.312Z,4.85
2022-08-17T16:44:22.084Z,4.63
2022-08-17T16:46:50.304Z,3.92
2022-08-17T16:49:36.009Z,4.40
2022-08-17T16:52:12.748Z,4.00
2022-08-17T16:54:43.971Z,4.10
2022-08-17T16:57:12.990Z,4.22
2022-08-17T16:59:43.617Z,3.92
2022-08-17T17:02:15.151Z,3.58
2022-08-17T17:05:24.501Z,3.78
2022-08-17T17:07:55.506Z,4.03
2022-08-17T17:10:40.144Z,3.30
2022-08-17T17:13:20.955Z,4.22
2022-08-17T17:16:13.142Z,4.20
2022-08-17T17:18:47.643Z,4.07
2022-08-17T17:21:19.919Z,4.32
2022-08-17T17:23:52.843Z,4.53
2022-08-17T17:26:44.453Z,4.30
2022-08-17T17:29:25.613Z,4.10
2022-08-17T17:32:09.574Z,4.72
2022-08-17T17:34:38.096Z,4.40
2022-08-17T17:37:14.880Z,4.13
2022-08-17T17:39:56.873Z,4.30
2022-08-17T17:42:31.509Z,4.32
2022-08-17T17:45:01.576Z,4.50
2022-08-17T17:47:29.769Z,5.10
2022-08-17T17:49:56.952Z,5.78
2022-08-17T17:52:48.067Z,7.60
2022-08-17T17:55:36.810Z,7.90
2022-08-17T17:58:19.758Z,6.75
2022-08-17T18:01:09.596Z,6.50
2022-08-17T18:03:59.137Z,6.47
2022-08-17T18:06:50.954Z,7.15
2022-08-17T18:09:36.541Z,6.65
2022-08-17T18:12:50.015Z,6.93
2022-08-17T18:15:51.831Z,5.68
2022-08-17T18:18:18.885Z,5.60
2022-08-17T18:20:56.128Z,6.10
2022-08-17T18:23:28.027Z,6.03
2022-08-17T18:25:57.128Z,6.20
2022-08-17T18:28:35.802Z,7.18
2022-08-17T18:31:20.677Z,6.30
2022-08-17T18:33:52.513Z,5.80
2022-08-17T18:36:36.459Z,6.63
2022-08-17T18:39:11.913Z,6.72
2022-08-17T18:41:48.425Z,6.60
2022-08-17T18:44:29.621Z,6.07
2022-08-17T18:47:18.073Z,10.70
2022-08-17T18:49:57.532Z,11.20
2022-08-17T18:55:15.907Z,6.38
2022-08-17T18:57:49.498Z,7.72
2022-08-17T19:00:41.109Z,7.22
2022-08-17T19:03:17.877Z,7.85
2022-08-17T19:05:54.932Z,7.15
2022-08-17T19:08:30.813Z,8.23
2022-08-17T19:11:21.547Z,7.05
2022-08-17T19:14:01.034Z,6.65
2022-08-17T19:16:50.009Z,6.40
2022-08-17T19:19:48.113Z,7.20
2022-08-17T19:22:28.914Z,6.55
2022-08-17T19:25:09.697Z,6.18
2022-08-17T19:27:46.316Z,6.97
2022-08-17T19:32:44.060Z,6.20
2022-08-17T19:35:17.369Z,6.70
2022-08-17T19:38:12.986Z,7.57
2022-08-17T19:40:54.568Z,7.30
2022-08-17T19:43:25.169Z,7.63
2022-08-17T19:46:26.225Z,7.07
2022-08-17T19:49:14.665Z,8.07
2022-08-17T19:51:44.778Z,8.93
2022-08-17T19:54:15.072Z,8.73
2022-08-17T19:57:01.747Z,8.30
2022-08-17T19:59:36.030Z,7.93
2022-08-17T20:02:22.117Z,8.18
2022-08-17T20:04:53.224Z,7.65
2022-08-17T20:07:22.773Z,7.75
2022-08-17T20:12:24.107Z,6.72
2022-08-17T20:14:57.276Z,7.72
2022-08-17T20:17:37.333Z,8.95
2022-08-17T20:20:21.588Z,8.18
2022-08-17T20:23:11.951Z,8.95
2022-08-17T20:25:39.293Z,8.55
2022-08-17T20:28:24.050Z,8.30
2022-08-17T20:30:51.581Z,7.13
2022-08-17T20:33:32.648Z,8.02
2022-08-17T20:36:14.467Z,10.10
2022-08-17T20:39:02.032Z,8.20
2022-08-17T20:41:31.083Z,8.00
2022-08-17T20:43:58.805Z,8.27
2022-08-17T20:46:37.999Z,7.88
2022-08-17T20:49:26.065Z,8.07
2022-08-17T20:52:38.534Z,7.85
2022-08-17T20:55:05.945Z,8.30
2022-08-17T20:57:32.846Z,8.95
2022-08-17T21:00:15.335Z,7.85
2022-08-17T21:02:46.540Z,7.40
2022-08-17T21:05:40.486Z,8.13
2022-08-17T21:08:15.707Z,7.90
2022-08-17T21:10:45.662Z,8.68
2022-08-17T21:13:14.003Z,7.53
2022-08-17T21:15:44.126Z,7.53
2022-08-17T21:18:28.573Z,7.97
2022-08-17T21:21:17.792Z,8.02
2022-08-17T21:24:09.176Z,9.10
2022-08-17T21:27:21.893Z,9.63
2022-08-17T21:29:53.593Z,8.73
2022-08-17T21:32:30.131Z,8.02
2022-08-17T21:35:28.646Z,8.10
2022-08-17T21:38:05.034Z,8.13
2022-08-17T21:40:33.877Z,8.05
2022-08-17T21:43:16.436Z,8.77
2022-08-17T21:45:44.114Z,8.05
2022-08-17T21:48:20.761Z,8.32
2022-08-17T21:51:06.851Z,8.98
2022-08-17T21:53:56.512Z,9.02
2022-08-17T21:56:31.809Z,9.30
2022-08-17T21:59:06.528Z,9.45
2022-08-17T22:01:40.570Z,9.95
2022-08-17T22:04:32.314Z,9.48
2022-08-17T22:07:02.193Z,8.75
2022-08-17T22:09:32.647Z,9.98
2022-08-17T22:12:29.990Z,9.18
2022-08-17T22:15:04.462Z,9.18
2022-08-17T22:17:46.301Z,9.07
2022-08-17T22:20:20.032Z,9.40
2022-08-17T22:23:08.728Z,8.60
2022-08-17T22:25:56.567Z,9.97
2022-08-17T22:29:02.048Z,8.43
2022-08-17T22:31:51.054Z,8.75
2022-08-17T22:34:18.256Z,7.13
2022-08-17T22:36:46.015Z,8.73
2022-08-17T22:39:13.492Z,8.70
2022-08-17T22:42:00.888Z,8.70
2022-08-17T22:44:37.874Z,8.80
2022-08-17T22:47:27.575Z,9.00
2022-08-17T22:50:12.082Z,8.20
2022-08-17T22:53:02.764Z,7.47
2022-08-17T22:55:52.644Z,9.38
2022-08-17T22:58:42.197Z,8.43
2022-08-17T23:03:57.978Z,8.52
2022-08-17T23:06:25.478Z,9.32
2022-08-17T23:08:57.836Z,8.35
2022-08-17T23:11:48.928Z,9.98
2022-08-17T23:14:19.904Z,9.18
2022-08-17T23:16:48.821Z,8.13
2022-08-17T23:19:19.532Z,6.70
2022-08-17T23:21:47.393Z,8.63
2022-08-17T23:24:24.357Z,7.65
2022-08-17T23:26:51.697Z,7.80
2022-08-17T23:29:21.387Z,8.45
2022-08-17T23:31:49.315Z,9.02
2022-08-17T23:34:18.528Z,8.50
2022-08-17T23:36:53.172Z,7.75
2022-08-17T23:39:27.535Z,8.77
2022-08-17T23:41:57.664Z,8.20
2022-08-17T23:44:24.878Z,7.93
2022-08-17T23:46:52.805Z,7.10
2022-08-17T23:49:20.585Z,8.20
2022-08-17T23:51:48.851Z,8.80
2022-08-17T23:54:33.699Z,8.50
2022-08-17T23:57:02.521Z,9.80
2022-08-17T23:59:29.547Z,8.37
